Time;durP1;ratioP1;P1;durP2;ratioP2;P2;SDS_P1;SDS_P2;PMS_P1;PMS_P2;Temp;Humidity;BMP_temperature;BMP_pressure;BME280_temperature;BME280_humidity;BME280_pressure;Samples;Min_cycle;Max_cycle;Signal;HPM_P1;HPM_P2
2021/11/30 00:02:12;;;;;;;5.65;2.78;;;4.20;96.70;;;;;;4898848;29;20066;-75
2021/11/30 00:04:41;;;;;;;4.90;2.90;;;4.40;96.70;;;;;;4898522;29;20126;-76
2021/11/30 00:07:09;;;;;;;4.15;3.00;;;4.40;96.70;;;;;;4904463;29;20048;-75
2021/11/30 00:12:08;;;;;;;5.68;3.60;;;4.20;96.70;;;;;;4910321;29;20063;-75
2021/11/30 00:14:40;;;;;;;6.45;3.40;;;4.20;96.70;;;;;;4897935;29;20059;-75
2021/11/30 00:17:09;;;;;;;6.30;3.95;;;4.30;96.70;;;;;;4914237;29;20406;-76
2021/11/30 00:19:38;;;;;;;7.05;4.28;;;4.20;96.70;;;;;;4890474;29;20040;-76
2021/11/30 00:22:08;;;;;;;6.20;4.05;;;4.20;96.70;;;;;;4916884;29;20293;-75
2021/11/30 00:24:38;;;;;;;7.78;4.57;;;4.20;96.70;;;;;;4912791;29;20084;-76
2021/11/30 00:27:06;;;;;;;6.57;4.65;;;4.20;96.70;;;;;;4899646;29;20040;-75
2021/11/30 00:29:35;;;;;;;7.55;4.40;;;4.10;96.70;;;;;;4900474;29;20044;-76
2021/11/30 00:32:07;;;;;;;10.07;5.60;;;4.20;96.70;;;;;;4914802;29;20044;-76
2021/11/30 00:34:35;;;;;;;7.00;4.35;;;4.00;96.70;;;;;;4915606;29;20066;-75
2021/11/30 00:37:04;;;;;;;7.47;4.30;;;4.00;96.70;;;;;;4902175;29;20044;-75
2021/11/30 00:39:32;;;;;;;5.43;4.20;;;4.10;96.70;;;;;;4917034;29;20043;-75
2021/11/30 00:42:01;;;;;;;6.90;4.30;;;4.00;96.70;;;;;;4914416;29;20064;-75
2021/11/30 00:44:35;;;;;;;8.07;4.97;;;4.00;96.70;;;;;;4894027;29;20214;-75
2021/11/30 00:47:15;;;;;;;7.30;4.38;;;4.10;96.70;;;;;;4898442;29;20143;-76
2021/11/30 00:49:43;;;;;;;7.35;4.50;;;4.10;96.70;;;;;;4918334;29;20432;-76
2021/11/30 00:52:12;;;;;;;6.90;4.47;;;4.10;96.70;;;;;;4896899;29;20032;-75
2021/11/30 00:54:42;;;;;;;7.50;5.18;;;4.10;96.70;;;;;;4921034;29;20051;-75
2021/11/30 00:57:10;;;;;;;8.82;4.53;;;4.00;96.70;;;;;;4903906;29;20506;-76
2021/11/30 00:59:39;;;;;;;6.50;4.40;;;4.00;96.70;;;;;;4898743;29;20040;-75
2021/11/30 01:02:09;;;;;;;6.55;3.88;;;4.10;96.70;;;;;;4887295;29;20054;-75
2021/11/30 01:04:38;;;;;;;5.43;3.65;;;4.00;96.70;;;;;;4920869;29;20449;-76
2021/11/30 01:07:09;;;;;;;5.72;3.38;;;4.00;96.70;;;;;;4905846;29;20053;-76
2021/11/30 01:09:39;;;;;;;7.20;3.53;;;3.90;96.70;;;;;;4905067;29;20048;-75
2021/11/30 01:12:08;;;;;;;5.90;3.60;;;3.70;96.70;;;;;;4902120;29;20063;-76
2021/11/30 01:14:38;;;;;;;6.15;3.55;;;3.90;96.70;;;;;;4906156;29;20044;-76
2021/11/30 01:17:06;;;;;;;5.22;3.30;;;3.90;96.70;;;;;;4919656;29;20580;-77
2021/11/30 01:19:36;;;;;;;5.38;3.10;;;3.90;96.70;;;;;;4892316;29;20478;-76
2021/11/30 01:22:05;;;;;;;4.38;3.10;;;3.90;96.70;;;;;;4888254;29;20059;-76
2021/11/30 01:24:34;;;;;;;4.35;2.88;;;3.80;96.70;;;;;;4907741;29;20154;-76
2021/11/30 01:27:03;;;;;;;4.38;3.00;;;3.70;96.70;;;;;;4925840;29;20305;-76
2021/11/30 01:29:31;;;;;;;4.95;2.67;;;3.90;96.70;;;;;;4900097;29;20130;-76
2021/11/30 01:31:59;;;;;;;4.63;3.30;;;3.90;96.70;;;;;;4902299;29;20494;-77
2021/11/30 01:34:28;;;;;;;5.18;3.25;;;3.70;96.70;;;;;;4908103;29;20281;-77
2021/11/30 01:36:57;;;;;;;6.30;3.30;;;3.60;96.70;;;;;;4908482;29;20530;-76
2021/11/30 01:39:26;;;;;;;5.57;3.53;;;3.70;96.70;;;;;;4899422;29;20544;-76
2021/11/30 01:41:55;;;;;;;6.57;3.20;;;3.70;96.70;;;;;;4901552;29;20056;-76
2021/11/30 01:45:11;;;;;;;4.35;3.03;;;3.70;96.70;;;;;;4922141;29;20484;-76
2021/11/30 01:49:59;;;;;;;4.57;2.97;;;3.70;96.70;;;;;;4921432;29;20242;-76
2021/11/30 01:52:29;;;;;;;6.97;3.33;;;3.80;96.70;;;;;;4896221;29;20074;-77
2021/11/30 01:54:57;;;;;;;4.75;3.10;;;3.70;96.70;;;;;;4909725;29;20052;-76
2021/11/30 01:57:27;;;;;;;5.32;3.08;;;3.70;96.70;;;;;;4918168;29;20047;-76
2021/11/30 01:59:56;;;;;;;5.15;2.80;;;3.90;96.70;;;;;;4906096;29;20533;-76
2021/11/30 02:02:24;;;;;;;5.25;2.92;;;3.80;96.70;;;;;;4921068;29;20039;-77
2021/11/30 02:04:53;;;;;;;5.85;3.58;;;3.80;96.70;;;;;;4891761;29;20052;-77
2021/11/30 02:07:21;;;;;;;5.03;3.08;;;3.80;96.70;;;;;;4921259;29;20306;-76
2021/11/30 02:09:51;;;;;;;4.20;2.78;;;3.90;96.70;;;;;;4912493;29;20131;-76
2021/11/30 02:12:20;;;;;;;3.95;2.05;;;3.90;96.70;;;;;;4906607;29;20076;-76
2021/11/30 02:14:50;;;;;;;2.83;1.83;;;3.80;96.70;;;;;;4902489;29;20052;-76
2021/11/30 02:17:18;;;;;;;3.25;1.88;;;3.60;96.70;;;;;;4905504;29;20123;-76
2021/11/30 02:19:55;;;;;;;2.35;1.40;;;3.40;96.70;;;;;;4909886;29;20445;-77
2021/11/30 02:22:23;;;;;;;;;;;3.50;96.70;;;;;;4922106;29;20060;-76
2021/11/30 02:24:53;;;;;;;3.40;1.60;;;3.50;96.70;;;;;;4926198;29;19931;-76
2021/11/30 02:27:25;;;;;;;2.50;1.42;;;3.40;96.70;;;;;;4906066;29;20390;-75
2021/11/30 02:29:54;;;;;;;2.60;1.25;;;3.30;96.70;;;;;;4905880;29;20048;-75
2021/11/30 02:32:22;;;;;;;2.95;1.40;;;3.30;96.70;;;;;;4904312;29;20470;-75
2021/11/30 02:34:52;;;;;;;3.03;1.42;;;3.30;96.70;;;;;;4903341;29;20047;-76
2021/11/30 02:37:26;;;;;;;2.15;1.23;;;3.50;96.70;;;;;;4914405;29;20103;-76
2021/11/30 02:39:55;;;;;;;2.38;1.20;;;3.40;96.70;;;;;;4898760;29;20106;-75
2021/11/30 02:42:23;;;;;;;2.20;1.20;;;3.40;96.70;;;;;;4924622;29;20656;-75
2021/11/30 02:44:51;;;;;;;3.20;1.30;;;3.40;96.70;;;;;;4903497;29;20597;-75
2021/11/30 02:47:20;;;;;;;2.33;1.30;;;3.40;96.70;;;;;;4905789;29;20074;-75
2021/11/30 02:49:48;;;;;;;2.67;1.48;;;3.30;96.70;;;;;;4899349;29;20064;-75
2021/11/30 02:52:19;;;;;;;3.83;1.98;;;3.40;96.70;;;;;;4910267;29;20048;-75
2021/11/30 02:54:52;;;;;;;2.85;1.65;;;3.40;96.70;;;;;;4903513;29;20059;-75
2021/11/30 02:57:22;;;;;;;4.22;1.67;;;3.40;96.70;;;;;;4912662;29;20048;-75
2021/11/30 02:59:54;;;;;;;3.75;1.92;;;3.30;96.70;;;;;;4883650;29;20442;-75
2021/11/30 03:02:25;;;;;;;4.50;2.00;;;3.10;96.70;;;;;;4919214;29;20048;-75
2021/11/30 03:04:55;;;;;;;4.95;2.10;;;3.00;96.70;;;;;;4905305;29;20103;-75
2021/11/30 03:07:27;;;;;;;5.15;2.38;;;3.20;96.70;;;;;;4906125;29;20410;-75
2021/11/30 03:09:56;;;;;;;3.50;2.53;;;3.30;96.70;;;;;;4901917;29;20062;-75
2021/11/30 03:12:24;;;;;;;3.90;2.30;;;3.20;96.70;;;;;;4903800;29;20490;-76
2021/11/30 03:14:53;;;;;;;3.75;2.30;;;3.20;96.70;;;;;;4922097;29;20340;-75
2021/11/30 03:17:22;;;;;;;4.82;2.50;;;3.30;96.70;;;;;;4907542;29;20036;-75
2021/11/30 03:19:50;;;;;;;4.45;2.80;;;3.10;96.70;;;;;;4902170;29;20172;-74
2021/11/30 03:22:18;;;;;;;4.10;2.25;;;3.10;96.70;;;;;;4915466;29;20142;-76
2021/11/30 03:24:48;;;;;;;5.25;2.40;;;3.10;96.70;;;;;;4902731;29;20566;-76
2021/11/30 03:27:17;;;;;;;5.38;3.08;;;3.00;96.70;;;;;;4902899;29;20054;-76
2021/11/30 03:29:46;;;;;;;4.47;2.35;;;2.90;96.70;;;;;;4889119;29;20059;-76
2021/11/30 03:35:00;;;;;;;4.43;2.83;;;2.90;96.70;;;;;;4919500;29;20044;-76
2021/11/30 03:37:29;;;;;;;3.88;2.90;;;2.80;96.70;;;;;;4916973;29;20506;-76
2021/11/30 03:39:59;;;;;;;5.93;3.47;;;2.80;96.70;;;;;;4918180;29;20052;-76
2021/11/30 03:42:27;;;;;;;6.50;3.80;;;2.80;96.70;;;;;;4886339;29;20146;-76
2021/11/30 03:44:55;;;;;;;6.70;3.97;;;2.80;96.70;;;;;;4905909;29;20131;-76
2021/11/30 03:47:24;;;;;;;7.32;4.05;;;2.90;96.70;;;;;;4913575;29;20048;-76
2021/11/30 03:49:52;;;;;;;7.35;4.00;;;3.00;96.70;;;;;;4919860;29;20127;-76
2021/11/30 03:52:20;;;;;;;9.70;5.07;;;3.10;96.70;;;;;;4922652;29;20106;-76
2021/11/30 03:54:53;;;;;;;10.60;4.50;;;3.20;96.70;;;;;;4912265;29;20566;-76
2021/11/30 03:57:25;;;;;;;9.10;5.22;;;3.20;96.70;;;;;;4904405;29;20051;-76
2021/11/30 03:59:53;;;;;;;6.97;4.68;;;3.10;96.70;;;;;;4903208;29;20039;-75
2021/11/30 04:02:22;;;;;;;7.05;4.82;;;3.00;96.70;;;;;;4915149;29;20052;-76
2021/11/30 04:04:50;;;;;;;6.63;4.53;;;2.90;96.70;;;;;;4899430;29;20473;-76
2021/11/30 04:07:18;;;;;;;8.45;4.85;;;2.80;96.70;;;;;;4897620;29;20506;-75
2021/11/30 04:09:46;;;;;;;8.15;5.00;;;2.90;96.70;;;;;;4897347;29;20581;-75
2021/11/30 04:12:15;;;;;;;7.55;4.78;;;2.80;96.70;;;;;;4898623;29;20089;-75
2021/11/30 04:14:44;;;;;;;8.05;5.15;;;2.70;96.70;;;;;;4900150;29;20071;-75
2021/11/30 04:17:13;;;;;;;7.00;3.90;;;2.70;96.70;;;;;;4915930;29;20051;-75
2021/11/30 04:19:41;;;;;;;7.15;4.57;;;2.90;96.70;;;;;;4915975;29;20103;-76
2021/11/30 04:22:09;;;;;;;7.03;4.85;;;2.90;96.70;;;;;;4900972;29;20094;-76
2021/11/30 04:24:37;;;;;;;6.65;4.68;;;2.90;96.70;;;;;;4918653;29;20103;-77
2021/11/30 04:27:06;;;;;;;6.82;3.90;;;2.90;96.70;;;;;;4900352;29;20047;-77
2021/11/30 04:29:37;;;;;;;7.32;3.83;;;2.90;96.70;;;;;;4917424;29;20107;-77
2021/11/30 04:32:07;;;;;;;4.70;3.22;;;2.70;96.70;;;;;;4919935;29;20068;-75
2021/11/30 04:34:36;;;;;;;7.10;3.28;;;2.60;96.70;;;;;;4881069;29;20075;-76
2021/11/30 04:37:04;;;;;;;5.10;2.92;;;2.70;96.70;;;;;;4896404;29;20438;-76
2021/11/30 04:39:33;;;;;;;6.55;3.33;;;2.70;96.70;;;;;;4919835;29;20130;-75
2021/11/30 04:42:02;;;;;;;4.85;3.28;;;2.60;96.70;;;;;;4903554;29;20130;-76
2021/11/30 04:44:33;;;;;;;4.45;3.03;;;2.70;96.70;;;;;;4909002;29;20051;-75
2021/11/30 04:47:10;;;;;;;3.33;2.28;;;2.60;96.70;;;;;;4917999;29;20050;-75
2021/11/30 04:49:58;;;;;;;4.47;2.95;;;2.50;96.70;;;;;;4893801;29;20164;-75
2021/11/30 04:52:32;;;;;;;4.30;2.70;;;2.60;96.70;;;;;;4900140;29;20060;-75
2021/11/30 04:55:00;;;;;;;3.90;2.58;;;2.60;96.70;;;;;;4914737;29;20483;-76
2021/11/30 04:57:29;;;;;;;3.60;2.47;;;2.70;96.70;;;;;;4901610;29;20108;-75
2021/11/30 04:59:57;;;;;;;5.00;2.50;;;2.80;96.70;;;;;;4889143;29;20095;-74
2021/11/30 05:02:25;;;;;;;3.38;2.17;;;2.70;96.70;;;;;;4914858;29;20185;-75
2021/11/30 05:04:55;;;;;;;5.18;2.22;;;2.80;96.70;;;;;;4916547;29;20051;-75
2021/11/30 05:07:23;;;;;;;3.95;2.13;;;2.70;96.70;;;;;;4916569;29;20132;-75
2021/11/30 05:09:51;;;;;;;3.25;2.08;;;2.80;96.70;;;;;;4904459;29;20078;-75
2021/11/30 05:12:19;;;;;;;3.08;1.83;;;2.90;96.70;;;;;;4892262;29;20576;-76
2021/11/30 05:14:48;;;;;;;3.25;1.80;;;2.80;96.70;;;;;;4895525;29;20067;-75
2021/11/30 05:17:16;;;;;;;3.08;1.60;;;2.80;96.70;;;;;;4898590;29;20511;-75
2021/11/30 05:19:44;;;;;;;5.40;1.77;;;2.60;96.70;;;;;;4901539;29;20473;-75
2021/11/30 05:22:14;;;;;;;2.83;1.95;;;2.40;96.70;;;;;;4904632;29;20083;-75
2021/11/30 05:24:42;;;;;;;4.78;2.00;;;2.50;96.70;;;;;;4913086;29;20043;-75
2021/11/30 05:27:10;;;;;;;5.32;1.67;;;2.50;96.70;;;;;;4885820;29;20071;-75
2021/11/30 05:29:39;;;;;;;2.85;1.63;;;2.60;96.70;;;;;;4914333;29;20044;-75
2021/11/30 05:32:07;;;;;;;3.30;1.55;;;2.50;96.70;;;;;;4903256;29;20075;-76
2021/11/30 05:34:35;;;;;;;2.30;1.58;;;2.60;96.70;;;;;;4881561;29;20052;-75
2021/11/30 05:37:04;;;;;;;3.78;1.48;;;2.70;96.70;;;;;;4913196;29;20035;-76
2021/11/30 05:39:33;;;;;;;3.65;1.67;;;2.50;96.70;;;;;;4899437;29;20075;-75
2021/11/30 05:42:02;;;;;;;3.70;1.70;;;2.40;96.70;;;;;;4900420;29;20043;-76
2021/11/30 05:44:30;;;;;;;3.63;1.67;;;2.40;96.70;;;;;;4881899;29;20047;-75
2021/11/30 05:46:59;;;;;;;4.70;1.95;;;2.60;96.70;;;;;;4908645;29;20454;-76
2021/11/30 05:49:27;;;;;;;3.53;1.80;;;2.60;96.70;;;;;;4920390;29;20240;-77
2021/11/30 05:51:55;;;;;;;2.03;1.20;;;2.50;96.70;;;;;;4905490;29;20566;-76
2021/11/30 05:54:23;;;;;;;3.75;1.80;;;2.50;96.70;;;;;;4902988;29;20367;-76
2021/11/30 05:57:07;;;;;;;4.72;2.00;;;2.50;96.70;;;;;;4906160;29;20408;-77
2021/11/30 05:59:39;;;;;;;4.57;2.20;;;2.40;96.70;;;;;;4920380;29;20069;-77
2021/11/30 06:02:08;;;;;;;2.85;1.60;;;2.40;96.70;;;;;;4900268;29;20053;-76
2021/11/30 06:04:36;;;;;;;5.45;1.85;;;2.50;96.70;;;;;;4895298;29;20047;-77
2021/11/30 06:07:04;;;;;;;4.40;2.05;;;2.30;96.70;;;;;;4902041;29;20450;-77
2021/11/30 06:09:34;;;;;;;3.40;1.63;;;2.20;96.70;;;;;;4902798;29;20048;-77
2021/11/30 06:12:04;;;;;;;3.92;2.08;;;2.20;96.70;;;;;;4909929;29;20062;-76
2021/11/30 06:14:33;;;;;;;3.10;1.80;;;2.30;96.70;;;;;;4908388;29;20583;-77
2021/11/30 06:17:01;;;;;;;3.22;2.17;;;2.40;96.70;;;;;;4918648;29;20058;-76
2021/11/30 06:19:30;;;;;;;3.63;2.30;;;2.40;96.70;;;;;;4908167;29;20145;-78
2021/11/30 06:21:58;;;;;;;4.70;2.47;;;2.40;96.70;;;;;;4899671;29;20076;-76
2021/11/30 06:24:26;;;;;;;3.20;1.95;;;2.30;96.70;;;;;;4915479;29;20313;-76
2021/11/30 06:26:54;;;;;;;5.20;2.65;;;2.20;96.70;;;;;;4918955;29;20040;-76
2021/11/30 06:29:24;;;;;;;5.47;3.25;;;2.30;96.70;;;;;;4904620;29;20052;-79
2021/11/30 06:31:52;;;;;;;5.55;3.38;;;2.30;96.70;;;;;;4917469;29;20062;-76
2021/11/30 06:34:21;;;;;;;6.50;3.80;;;2.40;96.70;;;;;;4915608;29;20095;-76
2021/11/30 06:36:49;;;;;;;5.10;3.20;;;2.30;96.70;;;;;;4913902;29;20044;-76
2021/11/30 06:39:17;;;;;;;6.60;3.65;;;2.40;96.70;;;;;;4899191;29;20052;-77
2021/11/30 06:41:45;;;;;;;7.13;3.55;;;2.40;96.70;;;;;;4913580;29;20094;-77
2021/11/30 06:44:13;;;;;;;17.17;6.63;;;2.30;96.70;;;;;;4901714;29;20134;-76
2021/11/30 06:46:43;;;;;;;49.03;22.08;;;2.20;96.70;;;;;;4897934;29;20447;-77
2021/11/30 06:49:14;;;;;;;59.85;25.23;;;2.30;96.70;;;;;;4904078;29;20053;-76
2021/11/30 06:51:43;;;;;;;49.97;23.73;;;2.30;96.70;;;;;;4892116;29;20111;-76
2021/11/30 06:54:11;;;;;;;107.75;44.28;;;2.30;96.70;;;;;;4921650;29;20768;-76
2021/11/30 06:56:39;;;;;;;160.63;68.57;;;2.20;96.70;;;;;;4897921;29;20554;-77
2021/11/30 06:59:08;;;;;;;198.73;82.88;;;2.30;96.70;;;;;;4901064;29;20509;-76
2021/11/30 07:01:37;;;;;;;198.98;82.82;;;2.40;96.70;;;;;;4924984;29;20146;-77
2021/11/30 07:04:07;;;;;;;167.85;69.45;;;2.40;96.70;;;;;;4889405;29;20056;-77
2021/11/30 07:09:35;;;;;;;71.18;30.17;;;2.40;96.70;;;;;;4922072;29;20517;-77
2021/11/30 07:12:24;;;;;;;68.07;27.73;;;2.20;96.70;;;;;;4902909;29;20107;-77
2021/11/30 07:14:53;;;;;;;38.97;16.70;;;2.30;96.70;;;;;;4902129;29;20052;-77
2021/11/30 07:17:21;;;;;;;24.35;10.27;;;2.40;96.70;;;;;;4921082;29;20122;-77
2021/11/30 07:19:51;;;;;;;17.80;9.07;;;2.50;96.70;;;;;;4922176;29;20062;-76
2021/11/30 07:22:20;;;;;;;9.77;5.13;;;2.50;96.70;;;;;;4912591;29;20043;-76
2021/11/30 07:24:49;;;;;;;9.30;4.40;;;2.60;96.70;;;;;;4909416;29;20150;-76
2021/11/30 07:27:18;;;;;;;8.18;4.43;;;2.70;96.70;;;;;;4903828;29;20047;-75
2021/11/30 07:29:46;;;;;;;8.48;3.88;;;2.60;96.70;;;;;;4900028;29;20043;-77
2021/11/30 07:32:15;;;;;;;7.03;3.22;;;2.60;96.70;;;;;;4900203;29;20435;-75
2021/11/30 07:34:44;;;;;;;7.00;3.40;;;2.70;96.70;;;;;;4900932;29;20056;-75
2021/11/30 07:37:14;;;;;;;4.15;2.80;;;2.80;96.70;;;;;;4903435;29;20051;-76
2021/11/30 07:39:42;;;;;;;14.50;6.75;;;2.90;96.70;;;;;;4899493;29;20075;-75
2021/11/30 07:42:10;;;;;;;20.20;8.90;;;2.80;96.70;;;;;;4904511;29;20047;-75
2021/11/30 07:44:39;;;;;;;25.73;9.63;;;2.80;96.70;;;;;;4895414;29;20402;-75
2021/11/30 07:47:07;;;;;;;18.08;7.68;;;2.70;96.70;;;;;;4916298;29;20043;-75
2021/11/30 07:49:36;;;;;;;12.73;5.63;;;2.90;96.70;;;;;;4900165;29;20051;-75
2021/11/30 07:52:04;;;;;;;10.65;5.28;;;2.90;96.70;;;;;;4904826;29;20048;-75
2021/11/30 07:54:35;;;;;;;9.15;5.25;;;3.00;96.70;;;;;;4897474;29;20458;-76
2021/11/30 07:57:03;;;;;;;6.40;3.35;;;3.10;96.70;;;;;;4905172;29;20044;-75
2021/11/30 07:59:32;;;;;;;7.20;4.05;;;3.10;96.70;;;;;;4901863;29;20079;-76
2021/11/30 08:02:00;;;;;;;6.50;3.88;;;3.20;96.70;;;;;;4897258;29;20051;-75
2021/11/30 08:04:34;;;;;;;17.70;7.03;;;3.20;96.70;;;;;;4911367;29;20151;-76
2021/11/30 08:07:03;;;;;;;11.55;5.85;;;3.30;96.70;;;;;;4911963;29;20044;-75
2021/11/30 08:09:35;;;;;;;9.45;4.63;;;3.30;96.70;;;;;;4914943;29;20536;-75
2021/11/30 08:12:06;;;;;;;7.93;4.30;;;3.30;96.70;;;;;;4901604;29;20400;-76
2021/11/30 08:14:34;;;;;;;10.43;4.00;;;3.40;96.70;;;;;;4915194;29;20048;-75
2021/11/30 08:17:02;;;;;;;7.00;4.00;;;3.30;96.70;;;;;;4882097;29;20048;-75
2021/11/30 08:19:31;;;;;;;6.28;3.95;;;3.40;96.70;;;;;;4917725;29;20495;-76
2021/11/30 08:21:59;;;;;;;7.40;3.85;;;3.50;96.70;;;;;;4900777;29;20048;-75
2021/11/30 08:24:27;;;;;;;8.40;4.43;;;3.60;96.70;;;;;;4913236;29;21598;-75
2021/11/30 08:26:56;;;;;;;7.10;4.72;;;3.60;96.70;;;;;;4905259;29;20510;-75
2021/11/30 08:29:26;;;;;;;7.38;4.07;;;3.40;96.70;;;;;;4885385;29;20503;-76
2021/11/30 08:31:54;;;;;;;7.05;3.80;;;3.40;96.70;;;;;;4899007;29;20070;-75
2021/11/30 08:34:23;;;;;;;6.60;3.72;;;3.50;96.70;;;;;;4896203;29;20565;-75
2021/11/30 08:36:51;;;;;;;10.95;4.15;;;3.60;96.70;;;;;;4893134;29;20067;-76
2021/11/30 08:39:19;;;;;;;7.82;3.85;;;3.70;96.70;;;;;;4897227;29;20135;-75
2021/11/30 08:41:48;;;;;;;7.53;3.92;;;3.80;96.70;;;;;;4898393;29;20040;-76
2021/11/30 08:44:29;;;;;;;6.07;3.45;;;3.80;96.70;;;;;;4916602;29;20063;-76
2021/11/30 08:46:58;;;;;;;5.75;2.90;;;3.90;96.70;;;;;;4896341;29;20059;-76
2021/11/30 08:49:27;;;;;;;6.78;3.47;;;4.10;96.70;;;;;;4902267;29;20055;-77
2021/11/30 08:51:57;;;;;;;5.75;3.30;;;4.20;96.70;;;;;;4884202;29;20052;-76
2021/11/30 08:54:27;;;;;;;7.28;3.85;;;4.40;96.70;;;;;;4900388;29;20070;-75
2021/11/30 08:56:57;;;;;;;8.13;4.30;;;4.50;96.70;;;;;;4897528;29;20561;-75
2021/11/30 08:59:26;;;;;;;8.85;4.90;;;4.50;96.70;;;;;;4897120;29;20530;-77
2021/11/30 09:01:56;;;;;;;11.80;6.40;;;4.50;96.70;;;;;;4900427;29;20047;-76
2021/11/30 09:04:25;;;;;;;10.00;5.03;;;4.60;96.70;;;;;;4902462;29;20047;-76
2021/11/30 09:06:54;;;;;;;7.53;3.70;;;4.60;96.70;;;;;;4909667;29;20095;-76
2021/11/30 09:09:22;;;;;;;6.60;3.83;;;4.70;96.70;;;;;;4897894;29;20052;-75
2021/11/30 09:12:04;;;;;;;7.82;4.00;;;4.80;96.70;;;;;;4894523;29;20064;-75
2021/11/30 09:14:33;;;;;;;5.40;3.45;;;4.90;96.70;;;;;;4899804;29;20542;-76
2021/11/30 09:17:03;;;;;;;5.70;3.53;;;5.00;96.70;;;;;;4918679;29;20066;-75
2021/11/30 09:19:32;;;;;;;5.70;3.72;;;5.00;96.70;;;;;;4915857;29;20207;-76
2021/11/30 09:22:01;;;;;;;8.15;3.78;;;5.10;96.70;;;;;;4891163;29;20419;-75
2021/11/30 09:24:30;;;;;;;6.90;4.10;;;5.10;96.70;;;;;;4900322;29;20051;-75
2021/11/30 09:26:59;;;;;;;7.43;3.75;;;5.30;96.70;;;;;;4917823;29;20589;-76
2021/11/30 09:29:27;;;;;;;5.18;3.72;;;5.40;96.70;;;;;;4920070;29;20044;-76
2021/11/30 09:31:56;;;;;;;5.93;3.63;;;5.60;96.70;;;;;;4919605;29;20711;-76
2021/11/30 09:34:27;;;;;;;5.10;3.70;;;5.70;96.70;;;;;;4902775;29;20594;-76
2021/11/30 09:36:56;;;;;;;5.95;3.60;;;5.70;96.70;;;;;;4921483;29;20052;-74
2021/11/30 09:39:24;;;;;;;6.47;4.00;;;5.80;96.70;;;;;;4922171;29;20047;-75
2021/11/30 09:41:53;;;;;;;5.47;3.20;;;5.90;96.70;;;;;;4903017;29;20264;-75
2021/11/30 09:44:21;;;;;;;5.45;3.35;;;6.00;96.70;;;;;;4902062;29;20067;-76
2021/11/30 09:46:50;;;;;;;4.60;3.35;;;6.20;96.70;;;;;;4902452;29;20051;-76
2021/11/30 09:49:19;;;;;;;4.32;3.30;;;6.20;96.70;;;;;;4918449;29;20138;-76
2021/11/30 09:51:49;;;;;;;7.45;3.35;;;6.40;96.70;;;;;;4921656;29;20384;-76
2021/11/30 09:54:18;;;;;;;3.85;2.75;;;6.40;96.70;;;;;;4900917;29;20042;-75
2021/11/30 09:56:46;;;;;;;3.83;2.72;;;6.40;96.70;;;;;;4903149;29;20048;-75
2021/11/30 09:59:15;;;;;;;5.15;3.08;;;6.50;96.70;;;;;;4900218;29;20106;-76
2021/11/30 10:01:43;;;;;;;4.40;3.03;;;6.60;96.70;;;;;;4901552;29;20047;-76
2021/11/30 10:04:13;;;;;;;5.85;2.95;;;6.70;96.70;;;;;;4906392;29;20086;-76
2021/11/30 10:06:41;;;;;;;3.95;2.45;;;6.80;96.70;;;;;;4919157;29;20529;-75
2021/11/30 10:09:21;;;;;;;3.13;2.58;;;6.90;96.70;;;;;;4920579;29;20119;-75
2021/11/30 10:11:58;;;;;;;2.83;2.28;;;6.90;96.70;;;;;;4903592;29;20062;-76
2021/11/30 10:14:33;;;;;;;2.83;2.35;;;7.00;96.70;;;;;;4898297;29;20118;-76
2021/11/30 10:17:22;;;;;;;5.28;2.28;;;7.10;96.70;;;;;;4908611;29;20416;-75
2021/11/30 10:19:55;;;;;;;3.72;2.63;;;7.20;96.70;;;;;;4902695;29;20044;-76
2021/11/30 10:22:41;;;;;;;4.55;2.30;;;7.40;96.70;;;;;;4903094;29;20051;-75
2021/11/30 10:25:14;;;;;;;2.72;2.00;;;7.30;96.70;;;;;;4901176;29;20581;-75
2021/11/30 10:27:44;;;;;;;4.00;2.78;;;7.30;96.70;;;;;;4918530;29;20044;-76
2021/11/30 10:30:16;;;;;;;5.35;4.05;;;7.40;96.70;;;;;;4907350;29;20043;-74
2021/11/30 10:32:46;;;;;;;5.78;3.58;;;7.50;96.70;;;;;;4898778;29;20052;-75
2021/11/30 10:35:16;;;;;;;4.63;2.97;;;7.50;96.70;;;;;;4915922;29;20364;-75
2021/11/30 10:37:46;;;;;;;5.45;3.72;;;7.60;96.70;;;;;;4916637;29;20043;-75
2021/11/30 10:40:18;;;;;;;4.70;3.15;;;7.60;96.70;;;;;;4918630;29;20051;-75
2021/11/30 10:42:51;;;;;;;5.90;3.58;;;7.60;96.70;;;;;;4905412;29;20039;-76
2021/11/30 10:45:28;;;;;;;5.00;3.00;;;7.60;96.70;;;;;;4914216;29;20039;-75
2021/11/30 10:48:07;;;;;;;4.65;2.95;;;7.70;96.70;;;;;;4915887;29;20048;-75
2021/11/30 10:50:38;;;;;;;4.07;2.78;;;7.80;96.70;;;;;;4905581;29;20605;-76
2021/11/30 10:53:18;;;;;;;5.40;2.60;;;7.90;96.70;;;;;;4905415;29;20054;-76
2021/11/30 10:55:50;;;;;;;3.67;2.55;;;8.10;96.70;;;;;;4917537;29;20096;-76
2021/11/30 10:58:23;;;;;;;4.25;2.65;;;8.10;96.70;;;;;;4899728;29;20071;-75
2021/11/30 11:00:52;;;;;;;4.82;2.95;;;8.30;96.70;;;;;;4901016;29;20064;-77
2021/11/30 11:03:23;;;;;;;5.65;3.30;;;8.30;96.70;;;;;;4921816;29;20438;-76
2021/11/30 11:08:42;;;;;;;4.38;2.72;;;8.40;96.70;;;;;;4910900;29;20395;-76
2021/11/30 11:11:16;;;;;;;5.88;3.20;;;8.40;96.70;;;;;;4915949;29;20395;-75
2021/11/30 11:13:45;;;;;;;5.65;3.58;;;8.50;96.70;;;;;;4907016;29;20542;-76
2021/11/30 11:16:20;;;;;;;3.78;2.63;;;8.60;96.70;;;;;;4886587;29;20042;-75
2021/11/30 11:18:51;;;;;;;3.83;2.30;;;8.70;96.70;;;;;;4916328;29;20047;-75
2021/11/30 11:21:21;;;;;;;3.53;1.90;;;8.80;96.70;;;;;;4907140;29;20071;-75
2021/11/30 11:24:09;;;;;;;4.38;2.80;;;8.90;96.70;;;;;;4900499;29;20150;-76
2021/11/30 11:26:41;;;;;;;3.28;2.50;;;9.00;96.70;;;;;;4899946;29;20048;-75
2021/11/30 11:29:12;;;;;;;4.13;2.30;;;9.20;96.70;;;;;;4919820;29;20094;-75
2021/11/30 11:31:43;;;;;;;2.67;2.08;;;9.30;96.70;;;;;;4908659;29;20099;-75
2021/11/30 11:34:14;;;;;;;3.00;2.10;;;9.40;96.70;;;;;;4902898;29;20092;-76
2021/11/30 11:36:44;;;;;;;3.50;2.53;;;9.40;96.70;;;;;;4904341;29;20054;-76
2021/11/30 11:39:15;;;;;;;5.70;2.78;;;9.50;96.70;;;;;;4903596;29;20047;-76
2021/11/30 11:41:48;;;;;;;4.00;2.60;;;9.50;96.70;;;;;;4904784;29;20043;-75
2021/11/30 11:44:17;;;;;;;4.15;2.80;;;9.60;96.70;;;;;;4898587;29;20058;-76
2021/11/30 11:46:48;;;;;;;4.65;3.15;;;9.60;96.70;;;;;;4898640;29;20035;-76
2021/11/30 11:49:20;;;;;;;4.82;3.42;;;9.70;96.70;;;;;;4919611;29;20523;-75
2021/11/30 11:51:50;;;;;;;4.78;3.45;;;9.90;96.70;;;;;;4900830;29;20107;-75
2021/11/30 11:54:28;;;;;;;4.25;2.92;;;10.00;96.70;;;;;;4885942;29;20051;-76
2021/11/30 11:56:59;;;;;;;3.78;2.83;;;10.10;96.70;;;;;;4921368;29;20055;-76
2021/11/30 11:59:34;;;;;;;5.15;3.00;;;10.10;96.70;;;;;;4916151;29;20116;-75
2021/11/30 12:02:16;;;;;;;3.60;2.67;;;10.20;96.70;;;;;;4904299;29;20055;-75
2021/11/30 12:04:45;;;;;;;3.85;2.90;;;10.30;96.70;;;;;;4886225;29;20911;-76
2021/11/30 12:07:13;;;;;;;3.83;2.97;;;10.40;96.70;;;;;;4923870;29;20155;-75
2021/11/30 12:09:42;;;;;;;5.43;3.03;;;10.50;96.70;;;;;;4918338;29;20059;-74
2021/11/30 12:12:22;;;;;;;6.78;3.55;;;10.70;96.70;;;;;;4915951;29;20112;-75
2021/11/30 12:15:01;;;;;;;4.90;3.38;;;10.90;96.70;;;;;;4905545;29;20118;-75
2021/11/30 12:17:30;;;;;;;6.00;3.88;;;11.00;96.70;;;;;;4908033;29;20497;-75
2021/11/30 12:20:11;;;;;;;8.45;4.32;;;11.10;96.70;;;;;;4901026;29;20040;-74
2021/11/30 12:22:53;;;;;;;6.07;3.70;;;11.10;96.70;;;;;;4898850;29;20447;-75
2021/11/30 12:25:45;;;;;;;6.50;3.25;;;11.00;96.70;;;;;;4883781;29;20115;-75
2021/11/30 12:28:33;;;;;;;5.85;4.40;;;11.00;96.70;;;;;;4903288;29;20061;-76
2021/11/30 12:31:02;;;;;;;5.18;3.58;;;11.10;96.70;;;;;;4920621;29;20676;-75
2021/11/30 12:33:32;;;;;;;5.63;4.50;;;11.30;96.70;;;;;;4914876;29;20048;-74
2021/11/30 12:36:03;;;;;;;6.35;3.22;;;11.20;96.70;;;;;;4899003;29;20117;-75
2021/11/30 12:38:36;;;;;;;4.82;3.05;;;11.30;96.70;;;;;;4920560;29;20050;-75
2021/11/30 12:41:28;;;;;;;5.50;3.85;;;11.30;96.70;;;;;;4904560;29;20340;-75
2021/11/30 12:44:06;;;;;;;4.45;2.90;;;11.40;96.70;;;;;;4900678;29;20047;-75
2021/11/30 12:46:37;;;;;;;5.43;3.28;;;11.40;96.70;;;;;;4899577;29;20539;-75
2021/11/30 12:49:31;;;;;;;6.22;3.88;;;11.40;96.70;;;;;;4920084;29;20052;-74
2021/11/30 12:52:14;;;;;;;6.57;4.15;;;11.40;96.70;;;;;;4886902;29;20790;-74
2021/11/30 12:54:45;;;;;;;5.07;3.33;;;11.50;96.70;;;;;;4919401;29;20326;-75
2021/11/30 12:57:18;;;;;;;8.77;6.35;;;11.50;96.70;;;;;;4924787;29;20103;-74
2021/11/30 12:59:57;;;;;;;5.88;3.33;;;11.50;96.70;;;;;;4901469;29;20056;-75
2021/11/30 13:02:29;;;;;;;5.97;2.80;;;11.50;96.70;;;;;;4912296;29;20071;-75
2021/11/30 13:05:21;;;;;;;6.57;3.00;;;11.70;96.70;;;;;;4912288;29;20083;-75
2021/11/30 13:08:08;;;;;;;4.18;2.28;;;11.70;96.70;;;;;;4887145;29;20076;-74
2021/11/30 13:10:42;;;;;;;2.72;1.95;;;11.70;96.70;;;;;;4904759;29;20048;-75
2021/11/30 13:13:18;;;;;;;3.70;1.92;;;11.80;96.70;;;;;;4925868;29;20107;-75
2021/11/30 13:15:52;;;;;;;3.38;2.22;;;11.70;96.70;;;;;;4924366;29;20051;-75
2021/11/30 13:18:21;;;;;;;3.92;2.50;;;11.70;96.70;;;;;;4924350;29;20499;-75
2021/11/30 13:20:51;;;;;;;3.40;2.08;;;11.60;96.70;;;;;;4919099;29;20590;-75
2021/11/30 13:23:20;;;;;;;4.05;2.20;;;11.60;96.70;;;;;;4907902;29;20052;-74
2021/11/30 13:25:48;;;;;;;2.75;1.70;;;11.50;96.70;;;;;;4905003;29;20047;-75
2021/11/30 13:28:18;;;;;;;4.55;1.95;;;11.40;96.70;;;;;;4921256;29;20052;-74